sensor_id;sensor_type;location;lat;lon;timestamp;temperature;humidity
39951;DHT22;25629;51.444;-2.606;2023-01-30T00:00:31;9.60;99.90
39951;DHT22;25629;51.444;-2.606;2023-01-30T00:02:57;9.60;99.90
39951;DHT22;25629;51.444;-2.606;2023-01-30T00:05:23;9.60;99.90
39951;DHT22;25629;51.444;-2.606;2023-01-30T00:07:48;9.70;99.90
39951;DHT22;25629;51.444;-2.606;2023-01-30T00:10:14;9.60;99.90
39951;DHT22;25629;51.444;-2.606;2023-01-30T00:12:40;9.60;99.90
39951;DHT22;25629;51.444;-2.606;2023-01-30T00:15:06;9.60;99.90
39951;DHT22;25629;51.444;-2.606;2023-01-30T00:17:32;9.60;99.90
39951;DHT22;25629;51.444;-2.606;2023-01-30T00:19:58;9.70;99.90
39951;DHT22;25629;51.444;-2.606;2023-01-30T00:22:24;9.60;99.90
39951;DHT22;25629;51.444;-2.606;2023-01-30T00:24:49;9.70;99.90
39951;DHT22;25629;51.444;-2.606;2023-01-30T00:27:15;9.70;99.90
39951;DHT22;25629;51.444;-2.606;2023-01-30T00:29:41;9.60;99.90
39951;DHT22;25629;51.444;-2.606;2023-01-30T00:32:07;9.70;99.90
39951;DHT22;25629;51.444;-2.606;2023-01-30T00:34:33;9.60;99.90
39951;DHT22;25629;51.444;-2.606;2023-01-30T00:36:59;9.60;99.90
39951;DHT22;25629;51.444;-2.606;2023-01-30T00:39:24;9.70;99.90
39951;DHT22;25629;51.444;-2.606;2023-01-30T00:41:50;9.70;99.90
39951;DHT22;25629;51.444;-2.606;2023-01-30T00:44:35;9.70;99.90
39951;DHT22;25629;51.444;-2.606;2023-01-30T00:47:20;9.70;99.90
39951;DHT22;25629;51.444;-2.606;2023-01-30T00:49:45;9.70;99.90
39951;DHT22;25629;51.444;-2.606;2023-01-30T00:52:11;9.70;99.90
39951;DHT22;25629;51.444;-2.606;2023-01-30T00:54:37;9.70;99.90
39951;DHT22;25629;51.444;-2.606;2023-01-30T00:57:03;9.70;99.90
39951;DHT22;25629;51.444;-2.606;2023-01-30T00:59:28;9.70;99.90
39951;DHT22;25629;51.444;-2.606;2023-01-30T01:01:54;9.70;99.90
39951;DHT22;25629;51.444;-2.606;2023-01-30T01:04:20;9.80;99.90
39951;DHT22;25629;51.444;-2.606;2023-01-30T01:06:46;9.80;99.90
39951;DHT22;25629;51.444;-2.606;2023-01-30T01:09:11;9.80;99.90
39951;DHT22;25629;51.444;-2.606;2023-01-30T01:11:37;9.80;99.90
39951;DHT22;25629;51.444;-2.606;2023-01-30T01:14:04;9.70;99.90
39951;DHT22;25629;51.444;-2.606;2023-01-30T01:16:31;9.80;99.90
39951;DHT22;25629;51.444;-2.606;2023-01-30T01:18:57;9.80;99.90
39951;DHT22;25629;51.444;-2.606;2023-01-30T01:21:23;9.80;99.90
39951;DHT22;25629;51.444;-2.606;2023-01-30T01:23:50;9.80;99.90
39951;DHT22;25629;51.444;-2.606;2023-01-30T01:26:16;9.80;99.90
39951;DHT22;25629;51.444;-2.606;2023-01-30T01:28:42;9.80;99.90
39951;DHT22;25629;51.444;-2.606;2023-01-30T01:31:12;9.80;99.90
39951;DHT22;25629;51.444;-2.606;2023-01-30T01:33:38;9.80;99.90
39951;DHT22;25629;51.444;-2.606;2023-01-30T01:36:05;9.80;99.90
39951;DHT22;25629;51.444;-2.606;2023-01-30T01:38:31;9.80;99.90
39951;DHT22;25629;51.444;-2.606;2023-01-30T01:40:57;9.90;99.90
39951;DHT22;25629;51.444;-2.606;2023-01-30T01:43:37;9.90;99.90
39951;DHT22;25629;51.444;-2.606;2023-01-30T01:46:16;9.90;99.90
39951;DHT22;25629;51.444;-2.606;2023-01-30T01:48:54;9.90;99.90
39951;DHT22;25629;51.444;-2.606;2023-01-30T01:51:36;9.90;99.90
39951;DHT22;25629;51.444;-2.606;2023-01-30T01:54:14;9.80;99.90
39951;DHT22;25629;51.444;-2.606;2023-01-30T01:56:45;9.80;99.90
39951;DHT22;25629;51.444;-2.606;2023-01-30T01:59:24;9.70;99.90
39951;DHT22;25629;51.444;-2.606;2023-01-30T02:01:54;9.70;99.90
39951;DHT22;25629;51.444;-2.606;2023-01-30T02:04:20;9.70;99.90
39951;DHT22;25629;51.444;-2.606;2023-01-30T02:07:06;9.70;99.90
39951;DHT22;25629;51.444;-2.606;2023-01-30T02:09:33;9.70;99.90
39951;DHT22;25629;51.444;-2.606;2023-01-30T02:12:01;9.80;99.90
39951;DHT22;25629;51.444;-2.606;2023-01-30T02:14:28;9.80;99.90
39951;DHT22;25629;51.444;-2.606;2023-01-30T02:16:55;9.90;99.90
39951;DHT22;25629;51.444;-2.606;2023-01-30T02:31:04;9.90;99.90
39951;DHT22;25629;51.444;-2.606;2023-01-30T02:44:48;9.80;99.90
39951;DHT22;25629;51.444;-2.606;2023-01-30T02:47:20;9.80;99.90
39951;DHT22;25629;51.444;-2.606;2023-01-30T02:49:57;9.80;99.90
39951;DHT22;25629;51.444;-2.606;2023-01-30T02:52:28;9.90;99.90
39951;DHT22;25629;51.444;-2.606;2023-01-30T02:54:53;9.90;99.90
39951;DHT22;25629;51.444;-2.606;2023-01-30T02:57:21;9.90;99.90
39951;DHT22;25629;51.444;-2.606;2023-01-30T02:59:54;9.90;99.90
39951;DHT22;25629;51.444;-2.606;2023-01-30T03:02:46;9.90;99.90
39951;DHT22;25629;51.444;-2.606;2023-01-30T03:11:18;10.10;99.90
39951;DHT22;25629;51.444;-2.606;2023-01-30T03:13:54;10.10;99.90
39951;DHT22;25629;51.444;-2.606;2023-01-30T03:18:52;10.10;99.90
39951;DHT22;25629;51.444;-2.606;2023-01-30T03:21:18;10.00;99.90
39951;DHT22;25629;51.444;-2.606;2023-01-30T03:23:45;10.10;99.90
39951;DHT22;25629;51.444;-2.606;2023-01-30T03:26:17;10.10;99.90
39951;DHT22;25629;51.444;-2.606;2023-01-30T03:28:44;10.10;99.90
39951;DHT22;25629;51.444;-2.606;2023-01-30T03:31:10;10.10;99.90
39951;DHT22;25629;51.444;-2.606;2023-01-30T03:33:36;10.10;99.90
39951;DHT22;25629;51.444;-2.606;2023-01-30T03:36:02;10.10;99.90
39951;DHT22;25629;51.444;-2.606;2023-01-30T03:38:28;10.10;99.90
39951;DHT22;25629;51.444;-2.606;2023-01-30T03:40:53;10.10;99.90
39951;DHT22;25629;51.444;-2.606;2023-01-30T03:43:19;10.20;99.90
39951;DHT22;25629;51.444;-2.606;2023-01-30T03:45:45;10.20;99.90
39951;DHT22;25629;51.444;-2.606;2023-01-30T03:48:10;10.30;99.90
39951;DHT22;25629;51.444;-2.606;2023-01-30T03:50:36;10.30;99.90
39951;DHT22;25629;51.444;-2.606;2023-01-30T03:53:02;10.30;99.90
39951;DHT22;25629;51.444;-2.606;2023-01-30T03:55:27;10.20;99.90
39951;DHT22;25629;51.444;-2.606;2023-01-30T03:57:54;10.20;99.90
39951;DHT22;25629;51.444;-2.606;2023-01-30T04:00:21;10.20;99.90
39951;DHT22;25629;51.444;-2.606;2023-01-30T04:02:46;10.20;99.90
39951;DHT22;25629;51.444;-2.606;2023-01-30T04:05:12;10.10;99.90
39951;DHT22;25629;51.444;-2.606;2023-01-30T04:07:38;10.00;99.90
39951;DHT22;25629;51.444;-2.606;2023-01-30T04:10:04;10.00;99.90
39951;DHT22;25629;51.444;-2.606;2023-01-30T04:12:30;9.90;99.90
39951;DHT22;25629;51.444;-2.606;2023-01-30T04:14:55;9.80;99.90
39951;DHT22;25629;51.444;-2.606;2023-01-30T04:17:21;9.80;99.90
39951;DHT22;25629;51.444;-2.606;2023-01-30T04:19:47;9.70;99.90
39951;DHT22;25629;51.444;-2.606;2023-01-30T04:22:12;9.70;99.90
39951;DHT22;25629;51.444;-2.606;2023-01-30T04:24:38;9.70;99.90
39951;DHT22;25629;51.444;-2.606;2023-01-30T04:27:04;9.60;99.90
39951;DHT22;25629;51.444;-2.606;2023-01-30T04:29:30;9.60;99.90
39951;DHT22;25629;51.444;-2.606;2023-01-30T04:31:55;9.50;99.90
39951;DHT22;25629;51.444;-2.606;2023-01-30T04:34:21;9.50;99.90
39951;DHT22;25629;51.444;-2.606;2023-01-30T04:36:47;9.40;99.90
39951;DHT22;25629;51.444;-2.606;2023-01-30T04:39:12;9.30;99.90
39951;DHT22;25629;51.444;-2.606;2023-01-30T04:41:38;9.30;99.90
39951;DHT22;25629;51.444;-2.606;2023-01-30T04:44:04;9.20;99.90
39951;DHT22;25629;51.444;-2.606;2023-01-30T04:46:29;9.10;99.90
39951;DHT22;25629;51.444;-2.606;2023-01-30T04:48:55;9.00;99.90
39951;DHT22;25629;51.444;-2.606;2023-01-30T04:51:21;8.90;99.90
39951;DHT22;25629;51.444;-2.606;2023-01-30T04:53:47;8.80;99.90
39951;DHT22;25629;51.444;-2.606;2023-01-30T04:56:12;8.80;99.90
39951;DHT22;25629;51.444;-2.606;2023-01-30T04:58:38;8.70;99.90
39951;DHT22;25629;51.444;-2.606;2023-01-30T05:01:24;8.60;99.90
39951;DHT22;25629;51.444;-2.606;2023-01-30T05:03:53;8.50;99.90
39951;DHT22;25629;51.444;-2.606;2023-01-30T05:06:20;8.60;99.90
39951;DHT22;25629;51.444;-2.606;2023-01-30T05:08:54;8.50;99.90
39951;DHT22;25629;51.444;-2.606;2023-01-30T05:11:21;8.40;99.90
39951;DHT22;25629;51.444;-2.606;2023-01-30T05:13:47;8.40;99.90
39951;DHT22;25629;51.444;-2.606;2023-01-30T05:16:14;8.30;99.90
39951;DHT22;25629;51.444;-2.606;2023-01-30T05:18:40;8.20;99.90
39951;DHT22;25629;51.444;-2.606;2023-01-30T05:21:11;8.10;99.90
39951;DHT22;25629;51.444;-2.606;2023-01-30T05:23:37;8.00;99.90
39951;DHT22;25629;51.444;-2.606;2023-01-30T05:26:03;8.00;99.90
39951;DHT22;25629;51.444;-2.606;2023-01-30T05:28:29;7.90;99.90
39951;DHT22;25629;51.444;-2.606;2023-01-30T05:31:02;7.90;99.90
39951;DHT22;25629;51.444;-2.606;2023-01-30T05:33:28;7.90;99.90
39951;DHT22;25629;51.444;-2.606;2023-01-30T05:35:54;7.90;99.90
39951;DHT22;25629;51.444;-2.606;2023-01-30T05:38:21;8.00;99.90
39951;DHT22;25629;51.444;-2.606;2023-01-30T05:40:56;7.90;99.90
39951;DHT22;25629;51.444;-2.606;2023-01-30T05:43:22;7.90;99.90
39951;DHT22;25629;51.444;-2.606;2023-01-30T05:45:52;7.90;99.90
39951;DHT22;25629;51.444;-2.606;2023-01-30T05:48:18;7.90;99.90
39951;DHT22;25629;51.444;-2.606;2023-01-30T05:50:44;8.00;99.90
39951;DHT22;25629;51.444;-2.606;2023-01-30T05:53:10;8.00;99.90
39951;DHT22;25629;51.444;-2.606;2023-01-30T05:55:36;8.10;99.90
39951;DHT22;25629;51.444;-2.606;2023-01-30T05:58:02;8.20;99.90
39951;DHT22;25629;51.444;-2.606;2023-01-30T06:00:27;8.20;99.90
39951;DHT22;25629;51.444;-2.606;2023-01-30T06:02:53;8.10;99.90
39951;DHT22;25629;51.444;-2.606;2023-01-30T06:05:19;8.10;99.90
39951;DHT22;25629;51.444;-2.606;2023-01-30T06:07:44;8.10;99.90
39951;DHT22;25629;51.444;-2.606;2023-01-30T06:10:10;8.10;99.90
39951;DHT22;25629;51.444;-2.606;2023-01-30T06:12:36;8.10;99.90
39951;DHT22;25629;51.444;-2.606;2023-01-30T06:15:02;8.10;99.90
39951;DHT22;25629;51.444;-2.606;2023-01-30T06:17:27;8.10;99.90
39951;DHT22;25629;51.444;-2.606;2023-01-30T06:19:53;8.20;99.90
39951;DHT22;25629;51.444;-2.606;2023-01-30T06:22:19;8.20;99.90
39951;DHT22;25629;51.444;-2.606;2023-01-30T06:24:44;8.20;99.90
39951;DHT22;25629;51.444;-2.606;2023-01-30T06:27:10;8.30;99.90
39951;DHT22;25629;51.444;-2.606;2023-01-30T06:29:36;8.30;99.90
39951;DHT22;25629;51.444;-2.606;2023-01-30T06:32:01;8.30;99.90
39951;DHT22;25629;51.444;-2.606;2023-01-30T06:34:27;8.30;99.90
39951;DHT22;25629;51.444;-2.606;2023-01-30T06:36:53;8.30;99.90
39951;DHT22;25629;51.444;-2.606;2023-01-30T06:39:18;8.30;99.90
39951;DHT22;25629;51.444;-2.606;2023-01-30T06:41:44;8.20;99.90
39951;DHT22;25629;51.444;-2.606;2023-01-30T06:44:10;8.20;99.90
39951;DHT22;25629;51.444;-2.606;2023-01-30T06:46:36;8.20;99.90
39951;DHT22;25629;51.444;-2.606;2023-01-30T06:49:01;8.20;99.90
39951;DHT22;25629;51.444;-2.606;2023-01-30T06:51:27;8.20;99.90
39951;DHT22;25629;51.444;-2.606;2023-01-30T06:53:53;8.20;99.90
39951;DHT22;25629;51.444;-2.606;2023-01-30T06:56:18;8.20;99.90
39951;DHT22;25629;51.444;-2.606;2023-01-30T06:58:44;8.20;99.90
39951;DHT22;25629;51.444;-2.606;2023-01-30T07:01:10;8.20;99.90
39951;DHT22;25629;51.444;-2.606;2023-01-30T07:03:36;8.20;99.90
39951;DHT22;25629;51.444;-2.606;2023-01-30T07:06:02;8.20;99.90
39951;DHT22;25629;51.444;-2.606;2023-01-30T07:08:28;8.20;99.90
39951;DHT22;25629;51.444;-2.606;2023-01-30T07:10:53;8.30;99.90
39951;DHT22;25629;51.444;-2.606;2023-01-30T07:13:19;8.30;99.90
39951;DHT22;25629;51.444;-2.606;2023-01-30T07:15:45;8.20;99.90
39951;DHT22;25629;51.444;-2.606;2023-01-30T07:18:11;8.10;99.90
39951;DHT22;25629;51.444;-2.606;2023-01-30T07:20:37;8.10;99.90
39951;DHT22;25629;51.444;-2.606;2023-01-30T07:23:03;8.10;99.90
39951;DHT22;25629;51.444;-2.606;2023-01-30T07:25:29;8.20;99.90
39951;DHT22;25629;51.444;-2.606;2023-01-30T07:28:00;8.10;99.90
39951;DHT22;25629;51.444;-2.606;2023-01-30T07:30:27;8.10;99.90
39951;DHT22;25629;51.444;-2.606;2023-01-30T07:32:55;8.00;99.90
39951;DHT22;25629;51.444;-2.606;2023-01-30T07:35:24;8.00;99.90
39951;DHT22;25629;51.444;-2.606;2023-01-30T07:37:50;8.00;99.90
39951;DHT22;25629;51.444;-2.606;2023-01-30T07:40:18;7.90;99.90
39951;DHT22;25629;51.444;-2.606;2023-01-30T07:45:34;8.00;99.90
39951;DHT22;25629;51.444;-2.606;2023-01-30T07:48:01;7.90;99.90
39951;DHT22;25629;51.444;-2.606;2023-01-30T07:50:26;7.90;99.90
39951;DHT22;25629;51.444;-2.606;2023-01-30T07:52:52;7.90;99.90
39951;DHT22;25629;51.444;-2.606;2023-01-30T07:55:18;7.90;99.90
39951;DHT22;25629;51.444;-2.606;2023-01-30T07:57:43;7.90;99.90
39951;DHT22;25629;51.444;-2.606;2023-01-30T08:00:09;7.90;99.90
39951;DHT22;25629;51.444;-2.606;2023-01-30T08:02:36;7.90;99.90
39951;DHT22;25629;51.444;-2.606;2023-01-30T08:05:02;7.90;99.90
39951;DHT22;25629;51.444;-2.606;2023-01-30T08:07:28;7.90;99.90
39951;DHT22;25629;51.444;-2.606;2023-01-30T08:09:54;7.80;99.90
39951;DHT22;25629;51.444;-2.606;2023-01-30T08:12:19;7.80;99.90
39951;DHT22;25629;51.444;-2.606;2023-01-30T08:14:45;7.70;99.90
39951;DHT22;25629;51.444;-2.606;2023-01-30T08:17:11;7.70;99.90
39951;DHT22;25629;51.444;-2.606;2023-01-30T08:19:36;7.60;99.90
39951;DHT22;25629;51.444;-2.606;2023-01-30T08:22:02;7.60;99.90
39951;DHT22;25629;51.444;-2.606;2023-01-30T08:24:28;7.60;99.90
39951;DHT22;25629;51.444;-2.606;2023-01-30T08:26:53;7.60;99.90
39951;DHT22;25629;51.444;-2.606;2023-01-30T08:29:19;7.60;99.90
39951;DHT22;25629;51.444;-2.606;2023-01-30T08:31:45;7.60;99.90
39951;DHT22;25629;51.444;-2.606;2023-01-30T08:34:10;7.60;99.90
39951;DHT22;25629;51.444;-2.606;2023-01-30T08:36:36;7.70;99.90
39951;DHT22;25629;51.444;-2.606;2023-01-30T08:39:02;7.70;99.90
39951;DHT22;25629;51.444;-2.606;2023-01-30T08:41:28;7.80;99.90
39951;DHT22;25629;51.444;-2.606;2023-01-30T08:43:53;7.90;99.90
39951;DHT22;25629;51.444;-2.606;2023-01-30T08:46:19;8.00;99.90
39951;DHT22;25629;51.444;-2.606;2023-01-30T08:48:46;8.00;99.90
39951;DHT22;25629;51.444;-2.606;2023-01-30T08:51:12;8.00;99.90
39951;DHT22;25629;51.444;-2.606;2023-01-30T08:53:38;8.10;99.90
39951;DHT22;25629;51.444;-2.606;2023-01-30T08:56:04;8.10;99.90
39951;DHT22;25629;51.444;-2.606;2023-01-30T08:58:30;8.10;99.90
39951;DHT22;25629;51.444;-2.606;2023-01-30T09:00:55;8.20;99.90
39951;DHT22;25629;51.444;-2.606;2023-01-30T09:03:21;8.20;99.90
39951;DHT22;25629;51.444;-2.606;2023-01-30T09:05:53;8.20;99.90
39951;DHT22;25629;51.444;-2.606;2023-01-30T09:08:19;8.20;99.90
39951;DHT22;25629;51.444;-2.606;2023-01-30T09:10:44;8.20;99.90
39951;DHT22;25629;51.444;-2.606;2023-01-30T09:13:10;8.20;99.90
39951;DHT22;25629;51.444;-2.606;2023-01-30T09:15:36;8.20;99.90
39951;DHT22;25629;51.444;-2.606;2023-01-30T09:18:02;8.20;99.90
39951;DHT22;25629;51.444;-2.606;2023-01-30T09:20:29;8.20;99.90
39951;DHT22;25629;51.444;-2.606;2023-01-30T09:22:54;8.10;99.90
39951;DHT22;25629;51.444;-2.606;2023-01-30T09:25:20;8.20;99.90
39951;DHT22;25629;51.444;-2.606;2023-01-30T09:27:49;8.20;99.90
39951;DHT22;25629;51.444;-2.606;2023-01-30T09:30:16;8.30;99.90
39951;DHT22;25629;51.444;-2.606;2023-01-30T09:32:42;8.40;99.90
39951;DHT22;25629;51.444;-2.606;2023-01-30T09:35:08;8.50;99.90
39951;DHT22;25629;51.444;-2.606;2023-01-30T09:37:34;8.60;99.90
39951;DHT22;25629;51.444;-2.606;2023-01-30T09:39:59;8.70;99.90
39951;DHT22;25629;51.444;-2.606;2023-01-30T09:42:44;8.90;99.90
39951;DHT22;25629;51.444;-2.606;2023-01-30T09:48:19;9.10;99.90
39951;DHT22;25629;51.444;-2.606;2023-01-30T09:56:37;9.20;99.90
39951;DHT22;25629;51.444;-2.606;2023-01-30T09:59:03;9.30;99.90
39951;DHT22;25629;51.444;-2.606;2023-01-30T10:01:33;9.50;99.90
39951;DHT22;25629;51.444;-2.606;2023-01-30T10:06:27;9.60;99.90
39951;DHT22;25629;51.444;-2.606;2023-01-30T10:09:29;9.70;99.90
39951;DHT22;25629;51.444;-2.606;2023-01-30T10:11:58;9.90;99.90
39951;DHT22;25629;51.444;-2.606;2023-01-30T10:14:57;10.00;99.90
39951;DHT22;25629;51.444;-2.606;2023-01-30T10:23:30;10.00;99.90
39951;DHT22;25629;51.444;-2.606;2023-01-30T10:26:06;10.10;99.90
39951;DHT22;25629;51.444;-2.606;2023-01-30T10:31:14;10.40;99.90
39951;DHT22;25629;51.444;-2.606;2023-01-30T10:34:02;10.60;99.90
39951;DHT22;25629;51.444;-2.606;2023-01-30T10:39:25;10.80;99.90
39951;DHT22;25629;51.444;-2.606;2023-01-30T10:42:28;10.80;99.90
39951;DHT22;25629;51.444;-2.606;2023-01-30T10:45:40;10.80;99.90
39951;DHT22;25629;51.444;-2.606;2023-01-30T10:53:45;10.80;99.90
39951;DHT22;25629;51.444;-2.606;2023-01-30T10:56:18;10.80;99.90
39951;DHT22;25629;51.444;-2.606;2023-01-30T11:01:36;11.20;99.90
39951;DHT22;25629;51.444;-2.606;2023-01-30T11:04:28;11.10;99.90
39951;DHT22;25629;51.444;-2.606;2023-01-30T11:06:55;11.20;99.90
39951;DHT22;25629;51.444;-2.606;2023-01-30T11:09:22;11.30;99.90
39951;DHT22;25629;51.444;-2.606;2023-01-30T11:11:52;11.20;99.90
39951;DHT22;25629;51.444;-2.606;2023-01-30T11:14:19;11.10;99.90
39951;DHT22;25629;51.444;-2.606;2023-01-30T11:16:48;11.20;99.90
39951;DHT22;25629;51.444;-2.606;2023-01-30T11:19:17;11.30;99.90
39951;DHT22;25629;51.444;-2.606;2023-01-30T11:21:52;11.40;99.90
39951;DHT22;25629;51.444;-2.606;2023-01-30T11:24:45;11.50;99.90
39951;DHT22;25629;51.444;-2.606;2023-01-30T11:27:23;11.70;99.90
39951;DHT22;25629;51.444;-2.606;2023-01-30T11:29:49;11.60;99.90
39951;DHT22;25629;51.444;-2.606;2023-01-30T11:32:27;11.50;99.90
39951;DHT22;25629;51.444;-2.606;2023-01-30T11:37:35;11.70;99.90
39951;DHT22;25629;51.444;-2.606;2023-01-30T11:40:27;11.80;99.90
39951;DHT22;25629;51.444;-2.606;2023-01-30T11:43:04;11.80;99.90
39951;DHT22;25629;51.444;-2.606;2023-01-30T11:45:39;11.80;99.90
39951;DHT22;25629;51.444;-2.606;2023-01-30T11:48:15;11.60;99.90
39951;DHT22;25629;51.444;-2.606;2023-01-30T11:50:43;11.30;99.90
39951;DHT22;25629;51.444;-2.606;2023-01-30T11:53:22;11.10;99.90
39951;DHT22;25629;51.444;-2.606;2023-01-30T11:55:50;11.00;99.90
39951;DHT22;25629;51.444;-2.606;2023-01-30T11:58:16;11.00;99.90
39951;DHT22;25629;51.444;-2.606;2023-01-30T12:00:46;11.10;99.90
39951;DHT22;25629;51.444;-2.606;2023-01-30T12:03:16;11.30;99.90
39951;DHT22;25629;51.444;-2.606;2023-01-30T12:05:45;11.30;99.90
39951;DHT22;25629;51.444;-2.606;2023-01-30T12:11:03;10.80;99.90
39951;DHT22;25629;51.444;-2.606;2023-01-30T12:13:42;10.50;99.90
39951;DHT22;25629;51.444;-2.606;2023-01-30T12:21:27;10.60;99.90
39951;DHT22;25629;51.444;-2.606;2023-01-30T12:24:10;10.90;99.90
39951;DHT22;25629;51.444;-2.606;2023-01-30T12:26:44;11.10;99.90
39951;DHT22;25629;51.444;-2.606;2023-01-30T12:29:26;11.40;99.90
39951;DHT22;25629;51.444;-2.606;2023-01-30T12:32:21;11.40;99.90
39951;DHT22;25629;51.444;-2.606;2023-01-30T12:34:50;11.60;99.90
39951;DHT22;25629;51.444;-2.606;2023-01-30T12:45:30;11.50;99.90
39951;DHT22;25629;51.444;-2.606;2023-01-30T12:48:30;11.50;99.90
39951;DHT22;25629;51.444;-2.606;2023-01-30T12:51:08;11.60;99.90
39951;DHT22;25629;51.444;-2.606;2023-01-30T13:12:54;10.30;99.90
39951;DHT22;25629;51.444;-2.606;2023-01-30T13:18:22;10.20;99.90
39951;DHT22;25629;51.444;-2.606;2023-01-30T13:20:51;10.30;99.90
39951;DHT22;25629;51.444;-2.606;2023-01-30T13:26:27;11.00;99.90
39951;DHT22;25629;51.444;-2.606;2023-01-30T13:28:58;11.50;99.90
39951;DHT22;25629;51.444;-2.606;2023-01-30T13:31:31;12.00;99.90
39951;DHT22;25629;51.444;-2.606;2023-01-30T13:34:27;12.30;99.90
39951;DHT22;25629;51.444;-2.606;2023-01-30T13:37:01;11.90;99.90
39951;DHT22;25629;51.444;-2.606;2023-01-30T13:42:03;11.20;99.90
39951;DHT22;25629;51.444;-2.606;2023-01-30T13:44:31;10.80;99.90
39951;DHT22;25629;51.444;-2.606;2023-01-30T13:52:51;10.20;99.90
39951;DHT22;25629;51.444;-2.606;2023-01-30T13:58:37;10.20;99.90
39951;DHT22;25629;51.444;-2.606;2023-01-30T14:01:10;10.40;99.90
39951;DHT22;25629;51.444;-2.606;2023-01-30T14:03:39;10.30;99.90
39951;DHT22;25629;51.444;-2.606;2023-01-30T14:06:32;10.30;99.90
39951;DHT22;25629;51.444;-2.606;2023-01-30T14:09:04;10.40;99.90
39951;DHT22;25629;51.444;-2.606;2023-01-30T14:11:41;10.20;99.90
39951;DHT22;25629;51.444;-2.606;2023-01-30T14:14:33;10.10;99.90
39951;DHT22;25629;51.444;-2.606;2023-01-30T14:17:15;10.10;99.90
39951;DHT22;25629;51.444;-2.606;2023-01-30T14:19:45;10.10;99.90
39951;DHT22;25629;51.444;-2.606;2023-01-30T14:22:24;10.00;99.90
39951;DHT22;25629;51.444;-2.606;2023-01-30T15:05:02;10.50;99.90
39951;DHT22;25629;51.444;-2.606;2023-01-30T15:22:20;10.50;99.90
39951;DHT22;25629;51.444;-2.606;2023-01-30T15:32:46;10.80;99.90
39951;DHT22;25629;51.444;-2.606;2023-01-30T15:37:55;10.80;99.90
39951;DHT22;25629;51.444;-2.606;2023-01-30T15:40:23;10.80;99.90
39951;DHT22;25629;51.444;-2.606;2023-01-30T15:50:48;10.60;99.90
39951;DHT22;25629;51.444;-2.606;2023-01-30T15:53:15;10.60;99.90
39951;DHT22;25629;51.444;-2.606;2023-01-30T15:55:43;10.50;99.90
39951;DHT22;25629;51.444;-2.606;2023-01-30T15:58:19;10.60;99.90
39951;DHT22;25629;51.444;-2.606;2023-01-30T16:00:54;10.60;99.90
39951;DHT22;25629;51.444;-2.606;2023-01-30T16:03:23;10.60;99.90
39951;DHT22;25629;51.444;-2.606;2023-01-30T16:05:54;10.70;99.90
39951;DHT22;25629;51.444;-2.606;2023-01-30T16:08:23;10.70;99.90
39951;DHT22;25629;51.444;-2.606;2023-01-30T16:10:49;10.60;99.90
39951;DHT22;25629;51.444;-2.606;2023-01-30T16:13:16;10.60;99.90
39951;DHT22;25629;51.444;-2.606;2023-01-30T16:21:04;10.50;99.90
39951;DHT22;25629;51.444;-2.606;2023-01-30T16:23:42;10.40;99.90
39951;DHT22;25629;51.444;-2.606;2023-01-30T16:26:16;10.30;99.90
39951;DHT22;25629;51.444;-2.606;2023-01-30T16:28:50;10.30;99.90
39951;DHT22;25629;51.444;-2.606;2023-01-30T16:31:23;10.20;99.90
39951;DHT22;25629;51.444;-2.606;2023-01-30T16:33:53;10.10;99.90
39951;DHT22;25629;51.444;-2.606;2023-01-30T16:38:46;9.90;99.90
39951;DHT22;25629;51.444;-2.606;2023-01-30T16:41:32;9.80;99.90
39951;DHT22;25629;51.444;-2.606;2023-01-30T16:49:39;9.50;99.90
39951;DHT22;25629;51.444;-2.606;2023-01-30T16:52:04;9.40;99.90
39951;DHT22;25629;51.444;-2.606;2023-01-30T16:54:37;9.30;99.90
39951;DHT22;25629;51.444;-2.606;2023-01-30T16:57:04;9.30;99.90
39951;DHT22;25629;51.444;-2.606;2023-01-30T16:59:34;9.30;99.90
39951;DHT22;25629;51.444;-2.606;2023-01-30T17:02:02;9.30;99.90
39951;DHT22;25629;51.444;-2.606;2023-01-30T17:04:31;9.20;99.90
39951;DHT22;25629;51.444;-2.606;2023-01-30T17:07:02;9.30;99.90
39951;DHT22;25629;51.444;-2.606;2023-01-30T17:11:57;9.30;99.90
39951;DHT22;25629;51.444;-2.606;2023-01-30T17:14:27;9.20;99.90
39951;DHT22;25629;51.444;-2.606;2023-01-30T17:19:30;9.10;99.90
39951;DHT22;25629;51.444;-2.606;2023-01-30T17:21:58;9.10;99.90
39951;DHT22;25629;51.444;-2.606;2023-01-30T17:24:24;9.10;99.90
39951;DHT22;25629;51.444;-2.606;2023-01-30T17:26:54;9.10;99.90
39951;DHT22;25629;51.444;-2.606;2023-01-30T17:29:24;9.10;99.90
39951;DHT22;25629;51.444;-2.606;2023-01-30T17:31:51;9.10;99.90
39951;DHT22;25629;51.444;-2.606;2023-01-30T17:34:17;9.10;99.90
39951;DHT22;25629;51.444;-2.606;2023-01-30T17:36:45;9.10;99.90
39951;DHT22;25629;51.444;-2.606;2023-01-30T17:39:16;9.00;99.90
39951;DHT22;25629;51.444;-2.606;2023-01-30T17:41:43;9.00;99.90
39951;DHT22;25629;51.444;-2.606;2023-01-30T17:44:09;9.00;99.90
39951;DHT22;25629;51.444;-2.606;2023-01-30T17:49:01;8.90;99.90
39951;DHT22;25629;51.444;-2.606;2023-01-30T17:51:27;9.00;99.90
39951;DHT22;25629;51.444;-2.606;2023-01-30T17:53:52;8.90;99.90
39951;DHT22;25629;51.444;-2.606;2023-01-30T17:56:22;9.00;99.90
39951;DHT22;25629;51.444;-2.606;2023-01-30T17:58:48;9.00;99.90
39951;DHT22;25629;51.444;-2.606;2023-01-30T18:01:17;8.90;99.90
39951;DHT22;25629;51.444;-2.606;2023-01-30T18:03:44;8.90;99.90
39951;DHT22;25629;51.444;-2.606;2023-01-30T18:06:14;8.90;99.90
39951;DHT22;25629;51.444;-2.606;2023-01-30T18:08:40;8.80;99.90
39951;DHT22;25629;51.444;-2.606;2023-01-30T18:11:06;8.90;99.90
39951;DHT22;25629;51.444;-2.606;2023-01-30T18:13:42;8.80;99.90
39951;DHT22;25629;51.444;-2.606;2023-01-30T18:16:16;8.80;99.90
39951;DHT22;25629;51.444;-2.606;2023-01-30T18:18:44;8.80;99.90
39951;DHT22;25629;51.444;-2.606;2023-01-30T18:21:09;8.80;99.90
39951;DHT22;25629;51.444;-2.606;2023-01-30T18:23:35;8.80;99.90
39951;DHT22;25629;51.444;-2.606;2023-01-30T18:26:02;8.70;99.90
39951;DHT22;25629;51.444;-2.606;2023-01-30T18:28:28;8.80;99.90
39951;DHT22;25629;51.444;-2.606;2023-01-30T18:30:53;8.80;99.90
39951;DHT22;25629;51.444;-2.606;2023-01-30T18:33:19;8.80;99.90
39951;DHT22;25629;51.444;-2.606;2023-01-30T18:35:45;8.70;99.90
39951;DHT22;25629;51.444;-2.606;2023-01-30T18:38:10;8.70;99.90
39951;DHT22;25629;51.444;-2.606;2023-01-30T18:40:37;8.60;99.90
39951;DHT22;25629;51.444;-2.606;2023-01-30T18:43:04;8.50;99.90
39951;DHT22;25629;51.444;-2.606;2023-01-30T18:45:31;8.40;99.90
39951;DHT22;25629;51.444;-2.606;2023-01-30T18:47:56;8.40;99.90
39951;DHT22;25629;51.444;-2.606;2023-01-30T18:50:22;8.30;99.90
39951;DHT22;25629;51.444;-2.606;2023-01-30T18:52:48;8.20;99.90
39951;DHT22;25629;51.444;-2.606;2023-01-30T18:55:15;8.20;99.90
39951;DHT22;25629;51.444;-2.606;2023-01-30T18:57:41;8.20;99.90
39951;DHT22;25629;51.444;-2.606;2023-01-30T19:00:07;8.00;99.90
39951;DHT22;25629;51.444;-2.606;2023-01-30T19:02:33;7.90;99.90
39951;DHT22;25629;51.444;-2.606;2023-01-30T19:04:59;7.80;99.90
39951;DHT22;25629;51.444;-2.606;2023-01-30T19:07:24;7.70;99.90
39951;DHT22;25629;51.444;-2.606;2023-01-30T19:09:50;7.60;99.90
39951;DHT22;25629;51.444;-2.606;2023-01-30T19:12:16;7.70;99.90
39951;DHT22;25629;51.444;-2.606;2023-01-30T19:15:00;7.60;99.90